Tiempo atmosférico en la estación meteorológica de Calamocha, Teruel (890 m.)



Fecha
DESCASC
Temp. máxima en grados centígrados (hora)
DESCASC
Temp. mínima en grados centígrados (hora)
DESCASC
Temp. media en grados centígrados
DESCASC
Racha de viento máxima en m/sg (hora)
DESCASC
Velocidad máxima media en intervalos de 10 minutos(hora)
DESCASC
Precipitaciones diarias en mm
DESCASC
Precipitaciones de 00:00 a 06:00 en mm
DESCASC
Precipitaciones de 06:00 a 12:00 en mm
DESCASC
Precipitaciones de 12:00 a 18:00 en mm
DESCASC
Precipitaciones de 18:00 a 24:00 en mm
DESCASC
23-06-2019 34.4 (18:00) 16.9 (06:50) 25.7 15 (16:50) 5.28 (09:30) 0 0 0 0 0
22-06-2019 32 (17:10) 8.6 (07:10) 20.3 10.83 (20:20) 8.33 (20:20) 0 0 0 0 0
21-06-2019 23.4 (16:40) 13.6 (04:00) 18.5 10 (14:30) 5.28 (14:30) 0 0 0 0 0
20-06-2019 27.3 (14:00) 11.5 (00:00) 19.4 10.28 (16:50) 5.83 (15:10) 0 0 0 0 0
19-06-2019 30 (18:10) 11.4 (00:00) 20.7 8.61 (15:50) 4.17 (10:00) 0 0 0 0 0
18-06-2019 32.2 (16:20) 17 (00:00) 24.6 12.22 (14:10) 5.83 (18:40) 0 0 0 0 0
17-06-2019 32 (18:20) 12 (00:00) 22 6.94 (18:00) 4.17 (16:00) 0 0 0 0 0
16-06-2019 29.8 (16:10) 7.1 (00:00) 18.4 9.17 (21:20) 5.83 (21:00) 0 0 0 0 0
15-06-2019 25 (19:10) 8.5 (00:00) 16.8 8.89 (00:10) 4.72 (00:20) 0 0 0 0 0
14-06-2019 27.1 (16:50) 11.7 (00:00) 19.4 12.22 (15:40) 5.83 (16:40) 0 0 0 0 0
13-06-2019 26.9 (16:40) 10.8 (00:00) 18.8 12.5 (09:20) 6.94 (10:50) 0 0 0 0 0
12-06-2019 23.5 (19:00) 0.9 (00:00) 12.2 10.83 (19:30) 7.22 (19:20) 0 0 0 0 0
11-06-2019 14.6 (19:40) 7 (00:00) 10.8 9.72 (16:10) 3.61 (16:20) 0 0 0 0 0
10-06-2019 23.7 (16:00) 10.3 (00:00) 17 9.72 (17:30) 5 (18:30) 0 0 0 0 0
09-06-2019 28.5 (16:40) 12.6 (00:00) 20.6 10.28 (22:00) 5 (22:00) 0 0 0 0 0
08-06-2019 27.1 (16:20) 4.2 (00:00) 15.7 11.67 (15:40) 6.39 (18:30) 0 0 0 0 0
07-06-2019 21 (16:50) 8.6 (00:00) 14.8 10 (11:50) 5 (12:10) 0 0 0 0 0
06-06-2019 24.5 (17:40) 3.6 (00:00) 14 14.72 (17:40) 7.22 (18:20) 0 0 0 0 0
05-06-2019 22.2 (00:00) 9.4 (00:00) 15.8 18.33 (12:10) 6.67 (12:10) 0.6 0 0 0.6 0
04-06-2019 31.6 (16:40) 11.6 (00:00) 21.6 13.33 (14:20) 6.39 (14:20) 0 0 0 0 0
03-06-2019 31.9 (16:40) 13 (00:00) 22.4 10.83 (15:10) 4.72 (15:40) 0 0 0 0 0
02-06-2019 32.4 (17:50) 11.1 (00:00) 21.8 6.39 (20:00) 4.17 (20:20) 0 0 0 0 0
01-06-2019 31.1 (18:10) 9.2 (00:00) 20.2 7.78 (20:10) 5 (20:10) 0 0 0 0 0
31-05-2019 28.8 (17:20) 5.5 (00:00) 17.1 6.67 (18:50) 3.89 (21:40) 0 0 0 0 0
30-05-2019 25.1 (17:10) 4.2 (00:00) 14.7 8.06 (17:20) 3.89 (17:20) 0 0 0 0 0
29-05-2019 19.3 (17:10) 3 (00:00) 11.1 13.33 (17:10) 5 (11:30) 0 0 0 0 0
28-05-2019 19 (15:30) 6.3 (00:00) 12.7 11.39 (19:00) 6.39 (19:50) 0 0 0 0 0
27-05-2019 23 (15:40) 4.3 (00:00) 13.7 11.39 (18:30) 5.56 (18:00) 0 0 0 0 0

Gráficas

Temp. máximas Temp. mínimas Temp. medias Precipitaciones Rachas de viento máximas Velocidades máximas media en intervalos de 10 minutos

Datos horarios

Fecha y hora oficial Temperatura (ºC) Velocidad del viento (km/h) Dirección del viento Racha (km/h) Dirección de racha Precipitación (mm) Presión (hPa) Tendencia (hPa) Humedad (%)
2019-06-25 23:00:00 26.7 4 Sur 19 Sudeste 0 916.6 2.2 37
2019-06-25 22:00:00 29 9 Sur 32 Sudeste 0 915.5 1.2 33
2019-06-25 21:00:00 32.7 17 Sur 37 Sudeste 0 914.9 0.7 23
2019-06-25 20:00:00 35.6 17 Sudeste 38 Sur 0 914.4 0.1 22
2019-06-25 19:00:00 36.9 23 Sur 51 Sudeste 0 914.3 -0.3 14
2019-06-25 18:00:00 37.9 19 Sur 37 Sudoeste 0 914.2 -0.8 16
2019-06-25 17:00:00 37.1 17 Sur 37 Sudeste 0 914.3 -1.4 17
2019-06-25 16:00:00 37.2 17 Sur 33 Sur 0 914.6 -1.5 19
2019-06-25 15:00:00 36.5 14 Sur 32 Sur 0 915 -1.6 19
2019-06-25 14:00:00 35.2 13 Sur 32 Sur 0 915.7 -1.2 21
2019-06-25 13:00:00 32.9 12 Sur 25 Sudoeste 0 916.1 -1 27
2019-06-25 12:00:00 29 4 Noroeste 8 Noroeste 0 916.6 -0.6 40
2019-06-25 11:00:00 25.8 3 Oeste 9 Sudoeste 0 916.9 0 48
2019-06-25 10:00:00 22.7 3 Oeste 5 Oeste 0 917.1 0.6 53
2019-06-25 09:00:00 20 3 Oeste 5 Sudoeste 0 917.2 1.2 62
2019-06-25 08:00:00 16.8 2 Oeste 3 Oeste 0 916.9 1.2 72
2019-06-25 07:00:00 14.5 0 Calma 4 Sur 0 916.5 0.7 77
2019-06-25 06:00:00 15.7 3 Sur 5 Sudeste 0 916 0.3 71
2019-06-25 05:00:00 16.8 3 Sudoeste 5 Sur 0 915.7 0.1 70
2019-06-25 04:00:00 18 3 Nordeste 14 Sudeste 0 915.8 0.3 67
2019-06-25 03:00:00 18.7 9 Sudeste 13 Sudeste 0 915.7 0.4 62
2019-06-25 02:00:00 19.6 5 Sudeste 8 Sudeste 0 915.6 0.7 58
2019-06-25 01:00:00 20.9 7 Sudeste 13 Sudoeste 0 915.5 1.4 55
2019-06-25 00:00:00 22.8 8 Sur 14 Sudoeste 0 915.3 2 49
2019-06-24 23:00:00 24.7 6 Sur 13 Sur 0 914.9 2.3 44
2019-06-24 22:00:00 26.7 6 Sur 19 Sur 0 914.1 1.6 38
2019-06-24 21:00:00 29 10 Sur 27 Sur 0 913.3 1 32
2019-06-24 20:00:00 31.3 14 Sudeste 31 Sudeste 0 912.6 -0.1 27
2019-06-24 19:00:00 31.8 17 Sudeste 25 Sur 0 912.5 -0.6 23
2019-06-24 18:00:00 33 16 Sudeste 33 Sudeste 0 912.3 -1.2 21
2019-06-24 17:00:00 34 9 Sudoeste 23 Sudoeste 0 912.7 -1.5 21
2019-06-24 16:00:00 33.1 4 Oeste 14 Oeste 0 913.1 -1.5 19
2019-06-24 15:00:00 32.4 5 Noroeste 15 Sudeste 0 913.5 -1.4 22
2019-06-24 14:00:00 31.2 6 Sudoeste 14 Sur 0 914.2 -0.6 22
2019-06-24 13:00:00 29.4 6 Oeste 17 Sudeste 0 914.6 -0.5 25
2019-06-24 12:00:00 29.6 9 Sudoeste 20 Sudoeste 0 914.9 -0.2 23
2019-06-24 11:00:00 26.9 12 Sudoeste 23 Sudoeste 0 914.8 -0.5 24
2019-06-24 10:00:00 24.3 13 Este 24 Este 0 915.1 0.1 30
2019-06-24 09:00:00 21.4 18 Este 26 Este 0 915.1 0.5 35
2019-06-24 08:00:00 17.9 4 Sur 8 Sur 0 915.3 0.6 45
2019-06-24 07:00:00 15.5 7 Sudeste 9 Sudeste 0 915 -0.1 46
2019-06-24 06:00:00 18 5 Sur 17 Sur 0 914.6 -0.7 37
2019-06-24 05:00:00 19.9 14 Sur 30 Sudoeste 0 914.7 -0.5 33
2019-06-24 04:00:00 19.6 8 Sur 22 Sur 0 915.1 0.2 35
2019-06-24 03:00:00 21 14 Sur 35 Sudoeste 0 915.3 0.7 34
2019-06-24 02:00:00 21.8 17 Sudoeste 29 Sudoeste 0 915.2 1.1 33
2019-06-24 01:00:00 21.9 10 Sudoeste 18 Sudoeste 0 914.9 1.5 39
2019-06-24 00:00:00 23.6 3 Sur 22 Sudoeste 0 914.6 1.7 37
2019-06-23 23:00:00 25.3 11 Sur 24 Sudeste 0 914.1 1.8 33
2019-06-23 22:00:00 26.6 8 Sur 21 Sur 0 913.4 1.2 32
2019-06-23 21:00:00 29.8 12 Sur 26 Sudoeste 0 912.9 0.4 28
2019-06-23 20:00:00 32.3 15 Sudoeste 29 Sur 0 912.3 -0.5 22
2019-06-23 19:00:00 33.3 13 Sur 28 Sudoeste 0 912.2 -1.2 20
2019-06-23 18:00:00 34.3 12 Sur 33 Sur 0 912.5 -1.4 18
2019-06-23 17:00:00 33.9 16 Sur 54 Sur 0 912.8 -1.6 20
2019-06-23 16:00:00 33.6 13 Sur 35 Sur 0 913.4 -1.1 21
2019-06-23 15:00:00 32.7 13 Sur 30 Sudoeste 0 913.9 -0.8 23
2019-06-23 14:00:00 31.8 14 Sudoeste 33 Sur 0 914.4 -0.6 24
2019-06-23 13:00:00 31 15 Sur 34 Sudeste 0 914.5 -0.8 24
2019-06-23 12:00:00 29.3 16 Sur 34 Sur 0 914.7 -0.4 25
2019-06-23 11:00:00 27.1 17 Sur 37 Sudoeste 0 915 0.1 28
2019-06-23 10:00:00 25.2 17 Sudoeste 35 Sudoeste 0 915.3 0.7 31
2019-06-23 09:00:00 23.5 14 Sudoeste 31 Sudoeste 0 915.1 0.5 35
2019-06-23 08:00:00 19.5 8 Sudeste 11 Sudoeste 0 914.9 0.3 56
2019-06-23 07:00:00 17 6 Sur 10 Sur 0 914.6 -0.2 65
2019-06-23 06:00:00 18.1 8 Sur 15 Sur 0 914.6 -0.5 62
2019-06-23 05:00:00 18.2 8 Sudeste 11 Sudeste 0 914.6 -0.3 65
2019-06-23 04:00:00 19.2 8 Sur 12 Sur 0 914.8 -0.2 64
2019-06-23 03:00:00 19.9 8 Sudeste 14 Sudeste 0 915.1 0.3 61
2019-06-23 02:00:00 21.5 8 Sur 20 Sur 0 914.9 0.4 56
2019-06-23 01:00:00 22.3 10 Sudoeste 20 Sudoeste 0 915 1.1 53
2019-06-23 00:00:00 23 12 Sudoeste 25 Sur 0 914.8 1.4 52
2019-06-22 23:00:00 23.9 6 Sur 26 Este 0 914.5 1.4 48
2019-06-22 22:00:00 24.8 18 Este 31 Este 0 913.9 0.9 39
2019-06-22 21:00:00 26.2 21 Este 39 Este 0 913.4 0.2 36
2019-06-22 20:00:00 28.9 11 Nordeste 22 Este 0 913.1 -0.6 31
2019-06-22 19:00:00 30.9 12 Oeste 33 Noroeste 0 913 -1.2 21
2019-06-22 18:00:00 30.9 5 Oeste 14 Sudoeste 0 913.2 -1.5 21
2019-06-22 17:00:00 31.8 9 Sur 23 Oeste 0 913.7 -1.8 21
2019-06-22 16:00:00 30.2 12 Oeste 26 Sudoeste 0 914.2 -2 27
2019-06-22 15:00:00 29.7 10 Sudoeste 25 Sudoeste 0 914.7 -1.9 28
2019-06-22 14:00:00 28.5 7 Sudoeste 17 Sur 0 915.5 -1.4 32
2019-06-22 13:00:00 25.7 6 Norte 11 Norte 0 916.2 -1.1 37
2019-06-22 12:00:00 24.1 4 Sudoeste 9 Sudoeste 0 916.6 -1.1 46
2019-06-22 11:00:00 20.8 4 Sudoeste 8 Sudoeste 0 916.9 -0.8 53
2019-06-22 10:00:00 17.7 4 Oeste 10 Sudoeste 0 917.3 -0.2 59
2019-06-22 09:00:00 15.5 4 Sur 11 Sur 0 917.7 0.2 64
2019-06-22 08:00:00 11.6 3 Sudoeste 5 Sudoeste 0 917.7 0.2 76
2019-06-22 07:00:00 8.7 2 Sudoeste 6 Sudeste 0 917.5 -0.3 86
2019-06-22 06:00:00 9.1 3 Sur 6 Sur 0 917.5 -0.5 84
2019-06-22 05:00:00 9.9 3 Sur 5 Sur 0 917.5 -0.9 86
2019-06-22 04:00:00 10.8 2 Sur 4 Sudeste 0 917.8 -0.6 80
2019-06-22 03:00:00 11.7 0 Calma 5 Norte 0 918 -0.3 77
2019-06-22 02:00:00 12.7 4 Nordeste 10 Norte 0 918.4 0.5 75
2019-06-22 01:00:00 13.7 5 Norte 11 Norte 0 918.4 1.2 72
2019-06-22 00:00:00 14.7 4 Norte 16 Norte 0 918.3 1.5 68
2019-06-21 23:00:00 15.8 5 Norte 15 Norte 0 917.9 1.8 64
2019-06-21 22:00:00 17 5 Norte 21 Norte 0 917.2 1.3 59
2019-06-21 21:00:00 18.3 10 Norte 27 Nordeste 0 916.8 1.3 56
2019-06-21 20:00:00 20.1 13 Nordeste 29 Norte 0 916.1 0.9 51
2019-06-21 19:00:00 21.1 13 Nordeste 34 Norte 0 915.9 0.6 49
2019-06-21 18:00:00 21.4 14 Norte 32 Norte 0 915.5 -0.1 48
2019-06-21 17:00:00 23.3 13 Norte 31 Norte 0 915.2 -0.8 44
2019-06-21 16:00:00 22.7 15 Norte 33 Norte 0 915.3 -0.5 47
2019-06-21 15:00:00 21.8 15 Norte 36 Nordeste 0 915.6 -0.3 50
2019-06-21 14:00:00 21.5 14 Norte 33 Norte 0 916 0.2 52
2019-06-21 13:00:00 21.6 11 Norte 25 Norte 0 915.8 -0.2 54
2019-06-21 12:00:00 20.9 9 Noroeste 18 Noroeste 0 915.9 0 56
2019-06-21 11:00:00 19.2 6 Nordeste 16 Nordeste 0 915.8 0.1 61
2019-06-21 10:00:00 16.6 7 Norte 18 Norte 0 916 0.7 72
2019-06-21 09:00:00 14.8 9 Norte 18 Norte 0 915.9 1 79
2019-06-21 08:00:00 14.3 4 Noroeste 15 Noroeste 0 915.7 1 82
2019-06-21 07:00:00 13.9 5 Noroeste 14 Noroeste 0 915.3 0.8 84
2019-06-21 06:00:00 13.8 7 Norte 17 Norte 0 914.9 0.2 85
2019-06-21 05:00:00 14.1 6 Norte 17 Norte 0 914.7 0 81
2019-06-21 04:00:00 13.7 5 Norte 19 Norte 0 914.5 -0.3 82
2019-06-21 03:00:00 14.2 6 Noroeste 16 Noroeste 0 914.7 0.1 81
2019-06-21 02:00:00 14.5 5 Norte 15 Norte 0 914.7 0.6 81
2019-06-21 01:00:00 14.7 5 Norte 17 Nordeste 0 914.8 1.7 80
2019-06-21 00:00:00 15.3 5 Norte 15 Norte 0 914.6 1.9 78
2019-06-20 23:00:00 17.1 7 Noroeste 20 Nordeste 0 914.1 1.7 72
2019-06-20 22:00:00 20.2 17 Este 32 Este 0 913.1 1.1 67
2019-06-20 21:00:00 21.5 19 Este 29 Este 0 912.7 0.8 60
2019-06-20 20:00:00 23 14 Nordeste 28 Nordeste 0 912.4 -0.3 47
2019-06-20 19:00:00 24.2 14 Nordeste 27 Norte 0 912 -0.3 47
2019-06-20 18:00:00 25.2 10 Norte 32 Nordeste 0 911.9 -0.5 43
2019-06-20 17:00:00 23.7 14 Norte 37 Norte 0 912.7 -0.3 47
2019-06-20 16:00:00 26.2 16 Este 35 Nordeste 0 912.3 -1.3 39
2019-06-20 15:00:00 26.3 17 Nordeste 36 Este 0 912.4 -1.5 40
2019-06-20 14:00:00 27.2 12 Nordeste 27 Nordeste 0 913 -1.2 31
2019-06-20 13:00:00 25.7 5 Noroeste 14 Noroeste 0 913.6 -1 37
2019-06-20 12:00:00 24.7 6 Norte 15 Norte 0 913.9 -0.9 40
2019-06-20 11:00:00 22.6 6 Norte 15 Noroeste 0 914.2 -0.4 48
2019-06-20 10:00:00 20.4 4 Noroeste 9 Noroeste 0 914.6 0 54
2019-06-20 09:00:00 17.5 2 Noroeste 5 Oeste 0 914.8 0.3 58
2019-06-20 08:00:00 14.6 2 Nordeste 5 Norte 0 914.6 0.3 65
2019-06-20 07:00:00 11.6 0 Calma 4 Oeste 0 914.6 0.2 76
2019-06-20 06:00:00 12.5 0 Calma 3 Noroeste 0 914.5 0.1 71
2019-06-20 05:00:00 12.9 2 Norte 5 Norte 0 914.3 -0.3 68
2019-06-20 04:00:00 14.3 3 Nordeste 8 Sur 0 914.4 -0.2 64
2019-06-20 03:00:00 16.1 4 Sudeste 8 Sur 0 914.4 -0.1 56
2019-06-20 02:00:00 18.2 3 Sur 9 Nordeste 0 914.6 0.4 52
2019-06-20 01:00:00 19.1 4 Norte 10 Nordeste 0 914.6 1.2 47
2019-06-20 00:00:00 20.5 2 Oeste 6 Noroeste 0 914.5 1.4 42
2019-06-19 23:00:00 21.8 0 Calma 5 Noroeste 0 914.2 1.5 39
2019-06-19 22:00:00 23.9 2 Norte 15 Noroeste 0 913.4 0.9 33
2019-06-19 21:00:00 26 5 Noroeste 22 Noroeste 0 913.1 0.5 30
2019-06-19 20:00:00 27.8 8 Noroeste 24 Noroeste 0 912.7 -0.2 27
2019-06-19 19:00:00 29.1 9 Oeste 27 Oeste 0 912.5 -0.8 25
2019-06-19 18:00:00 29.9 8 Noroeste 27 Oeste 0 912.6 -1.2 27
2019-06-19 17:00:00 29.3 10 Oeste 27 Oeste 0 912.9 -1.3 27
2019-06-19 16:00:00 28.9 12 Noroeste 31 Sudoeste 0 913.3 -1.3 28
2019-06-19 15:00:00 28.7 9 Oeste 29 Noroeste 0 913.8 -0.9 28
2019-06-19 14:00:00 27.3 11 Oeste 27 Noroeste 0 914.2 -0.6 31
2019-06-19 13:00:00 26.2 10 Oeste 27 Oeste 0 914.6 -0.4 33
2019-06-19 12:00:00 24.8 13 Oeste 30 Sudoeste 0 914.7 -0.5 37
2019-06-19 11:00:00 22.5 9 Oeste 29 Sudoeste 0 914.8 -0.3 46
2019-06-19 10:00:00 21.9 15 Oeste 24 Sudoeste 0 915 0.2 47
2019-06-19 09:00:00 18.5 10 Sudoeste 19 Sur 0 915.2 0.6 42
2019-06-19 08:00:00 15.4 9 Sudeste 14 Sur 0 915.1 0.9 45
2019-06-19 07:00:00 11.5 3 Sur 10 Sudeste 0 914.8 0.4 59
2019-06-19 06:00:00 11.7 5 Sur 9 Sur 0 914.6 0.1 54
2019-06-19 05:00:00 12.3 4 Sudeste 8 Sur 0 914.2 -0.5 52
2019-06-19 04:00:00 13.8 3 Sudeste 7 Noroeste 0 914.4 -0.1 49
2019-06-19 03:00:00 15.4 2 Nordeste 12 Sudeste 0 914.5 0.1 48
2019-06-19 02:00:00 17.1 8 Sudeste 10 Sudeste 0 914.7 1.2 43
2019-06-19 01:00:00 20.4 7 Sudoeste 20 Sudoeste 0 914.5 1.8 35
2019-06-19 00:00:00 19.4 6 Nordeste 18 Sur 0 914.4 2.3 31
2019-06-18 23:00:00 22.5 9 Sur 25 Oeste 0 913.5 1.7 24
2019-06-18 22:00:00 26.1 10 Oeste 29 Sudoeste 0 912.7 0.9 19
2019-06-18 21:00:00 27.9 15 Oeste 31 Oeste 0 912.1 0.3 18
2019-06-18 20:00:00 29.6 12 Oeste 35 Oeste 0 911.8 -0.3 17
2019-06-18 19:00:00 31 15 Sudoeste 40 Oeste 0 911.8 -0.5 17
2019-06-18 18:00:00 31.8 16 Oeste 34 Sudoeste 0 911.8 -0.8 15
2019-06-18 17:00:00 31.9 17 Sudoeste 41 Sudoeste 0 912.1 -1.1 16
2019-06-18 16:00:00 31.8 20 Sur 40 Sudoeste 0 912.3 -1.4 16
2019-06-18 15:00:00 31.8 16 Sudoeste 44 Sur 0 912.6 -1.5 17
2019-06-18 14:00:00 31 15 Sur 36 Sudoeste 0 913.2 -1.2 19
2019-06-18 13:00:00 30.4 18 Sur 36 Sur 0 913.7 -1 20
2019-06-18 12:00:00 28.6 12 Sudoeste 21 Sudoeste 0 914.1 -0.8 23
2019-06-18 11:00:00 26.5 7 Sudoeste 16 Sudoeste 0 914.4 -0.2 25
2019-06-18 10:00:00 23.1 4 Norte 7 Este 0 914.7 0.2 40
2019-06-18 09:00:00 19.6 3 Sudeste 6 Sudeste 0 914.9 0.4 46
2019-06-18 08:00:00 17.3 3 Sudoeste 6 Oeste 0 914.6 0.3 62
2019-06-18 07:00:00 17 2 Sudoeste 6 Este 0 914.5 -0.1 57
2019-06-18 06:00:00 17.6 2 Este 8 Sudeste 0 914.5 -0.5 49
2019-06-18 05:00:00 18.8 6 Sudeste 9 Sudeste 0 914.3 -1 45
2019-06-18 04:00:00 19.4 7 Sudeste 14 Sudeste 0 914.6 -0.9 45
2019-06-18 03:00:00 19.9 10 Sudeste 14 Sudeste 0 915 -0.2 43
2019-06-18 02:00:00 20.4 6 Sur 19 Sudoeste 0 915.3 0.5 42
2019-06-18 01:00:00 20.4 5 Sudeste 11 Sudoeste 0 915.5 1.6 42
2019-06-18 00:00:00 21.3 3 Sur 11 Sudoeste 0 915.2 1.9 42
2019-06-17 23:00:00 23.7 7 Sudoeste 18 Sudoeste 0 914.8 1.9 37
2019-06-17 22:00:00 26 8 Sudoeste 19 Sudoeste 0 913.9 0.9 25
2019-06-17 21:00:00 27.9 5 Nordeste 21 Sudoeste 0 913.3 -0.1 30
2019-06-17 20:00:00 30.4 4 Este 12 Sur 0 912.9 -1.1 15
2019-06-17 19:00:00 30.8 4 Oeste 20 Sudoeste 0 913 -1.8 18
2019-06-17 18:00:00 31.5 11 Sur 25 Sudeste 0 913.4 -1.8 15
2019-06-17 17:00:00 31.7 10 Sur 18 Sudoeste 0 914 -2 16
2019-06-17 16:00:00 31.4 15 Sudoeste 24 Sudoeste 0 914.8 -1.8 18
2019-06-17 15:00:00 30.6 8 Oeste 24 Sudoeste 0 915.2 -2 18
2019-06-17 14:00:00 29.2 10 Sudoeste 22 Sudoeste 0 916 -1.5 20
2019-06-17 13:00:00 28.2 8 Sur 21 Este 0 916.6 -1.2 21
2019-06-17 12:00:00 26.1 4 Oeste 10 Sur 0 917.2 -0.8 28
2019-06-17 11:00:00 23.3 4 Sudoeste 10 Sudoeste 0 917.5 -0.3 42
2019-06-17 10:00:00 20.2 5 Sudoeste 10 Sur 0 917.8 0.3 52
2019-06-17 09:00:00 18 5 Sur 9 Sudeste 0 918 0.6 63
2019-06-17 08:00:00 14.7 6 Sudeste 10 Sudeste 0 917.8 0.6 73
2019-06-17 07:00:00 12 6 Sur 11 Sudeste 0 917.5 0.2 78
2019-06-17 06:00:00 12.4 8 Sudeste 10 Sudeste 0 917.4 0 78
2019-06-17 05:00:00 13.8 6 Sudeste 13 Sudeste 0 917.2 -0.5 73
2019-06-17 04:00:00 14.8 8 Sudeste 12 Sudeste 0 917.3 -0.3 65
2019-06-17 03:00:00 14.9 8 Sudeste 11 Sudeste 0 917.4 -0.3 65
2019-06-17 02:00:00 15.8 4 Sudeste 9 Sudeste 0 917.7 0.3 60
2019-06-17 01:00:00 17.2 7 Sudeste 10 Sudeste 0 917.6 1.1 55
2019-06-17 00:00:00 18.8 3 Sudeste 14 Sudeste 0 917.7 1.5 51
2019-06-16 23:00:00 21.1 5 Sudeste 25 Sudeste 0 917.4 1.3 46
2019-06-16 22:00:00 22.6 15 Sudeste 33 Este 0 916.5 0.7 40
2019-06-16 21:00:00 23.7 21 Este 31 Este 0 916.2 0.5 36
2019-06-16 20:00:00 25.5 13 Sudeste 28 Sur 0 916.1 0 30
2019-06-16 19:00:00 27.6 11 Sur 30 Sudoeste 0 915.8 -0.9 27
2019-06-16 18:00:00 28.8 9 Sudeste 29 Sur 0 915.7 -1.6 24
2019-06-16 17:00:00 27.7 17 Este 32 Este 0 916.1 -1.8 24
2019-06-16 16:00:00 29.3 3 Sur 28 Oeste 0 916.7 -1.9 21
2019-06-16 15:00:00 28.4 6 Sur 18 Oeste 0 917.3 -1.7 22
2019-06-16 14:00:00 26.9 4 Oeste 17 Sudoeste 0 917.9 -1.6 24
2019-06-16 13:00:00 26.3 5 Sur 19 Sudeste 0 918.6 -1.2 25
2019-06-16 12:00:00 24.1 5 Oeste 17 Sudoeste 0 919 -0.8 29
2019-06-16 11:00:00 21.7 7 Sur 17 Sur 0 919.5 -0.1 34
2019-06-16 10:00:00 17.8 4 Sudoeste 9 Sudoeste 0 919.8 0.3 48
2019-06-16 09:00:00 14.2 5 Sur 8 Sudoeste 0 919.8 0.5 58
2019-06-16 08:00:00 10.5 0 Calma 3 Oeste 0 919.6 0.2 71
2019-06-16 07:00:00 7.1 0 Calma 5 Oeste 0 919.5 -0.3 81
2019-06-16 06:00:00 7.7 0 Calma 4 Nordeste 0 919.3 -0.8 81
2019-06-16 05:00:00 8.5 0 Calma 6 Noroeste 0 919.4 -0.8 77
2019-06-16 04:00:00 9.7 0 Calma 4 Sudeste 0 919.8 -0.4 71
2019-06-16 03:00:00 11.2 2 Sudeste 6 Noroeste 0 920.1 0.2 63
2019-06-16 02:00:00 12.6 4 Norte 8 Noroeste 0 920.2 0.7 61
2019-06-16 01:00:00 14 4 Norte 15 Norte 0 920.2 1.9 56
2019-06-16 00:00:00 15.1 6 Norte 13 Norte 0 919.9 2.5 52
2019-06-15 23:00:00 16.4 4 Nordeste 14 Nordeste 0 919.5 2.5 47
2019-06-15 22:00:00 18.4 9 Norte 28 Norte 0 918.3 1.5 42
2019-06-15 21:00:00 21.1 12 Norte 23 Nordeste 0 917.4 0.5 34
2019-06-15 20:00:00 23.3 6 Norte 16 Noroeste 0 917 -0.1 27
2019-06-15 19:00:00 24.9 4 Noroeste 17 Oeste 0 916.8 -0.4 26
2019-06-15 18:00:00 24.2 6 Norte 18 Norte 0 916.9 -0.5 26
2019-06-15 17:00:00 24.4 7 Norte 23 Nordeste 0 917.1 -0.6 25
2019-06-15 16:00:00 24.1 5 Norte 22 Noroeste 0 917.2 -0.8 24
2019-06-15 15:00:00 23 8 Oeste 21 Oeste 0 917.4 -0.8 26
2019-06-15 14:00:00 21.7 7 Oeste 27 Oeste 0 917.7 -0.4 30
2019-06-15 13:00:00 20.7 6 Noroeste 17 Norte 0 918 -0.2 34
2019-06-15 12:00:00 19 6 Noroeste 15 Norte 0 918.2 0.5 38
2019-06-15 11:00:00 17.5 5 Nordeste 15 Norte 0 918.1 0.7 44
2019-06-15 10:00:00 16.4 3 Este 12 Nordeste 0 918.2 1.3 44
2019-06-15 09:00:00 14.4 5 Oeste 12 Sudoeste 0 917.7 1.4 48
2019-06-15 08:00:00 12 4 Sur 8 Sur 0 917.4 1.2 51
2019-06-15 07:00:00 8.8 2 Sur 14 Sudeste 0 916.9 0.9 58
2019-06-15 06:00:00 8.6 10 Sur 14 Sudeste 0 916.3 0.6 57
2019-06-15 05:00:00 9.2 6 Sur 10 Sur 0 916.2 0.8 54
2019-06-15 04:00:00 9.8 4 Sur 6 Sur 0 916 1.1 51
2019-06-15 03:00:00 11.5 3 Sur 9 Sudoeste 0 915.7 1.6 46
2019-06-15 02:00:00 14.7 3 Sudoeste 20 Oeste 0 915.4 1.9 36
2019-06-15 01:00:00 16.9 8 Oeste 32 Oeste 0 914.9 2.3 30
2019-06-15 00:00:00 18.2 13 Oeste 27 Sudoeste 0 914.1 2.3 28
2019-06-14 23:00:00 19.3 9 Oeste 18 Sudoeste 0 913.5 2.4 28
2019-06-14 22:00:00 20.7 6 Oeste 24 Oeste 0 912.6 1.9 24
2019-06-14 21:00:00 23 13 Oeste 33 Oeste 0 911.8 1.3 19
2019-06-14 20:00:00 25.2 12 Oeste 35 Oeste 0 911.1 0.9 20
2019-06-14 19:00:00 26 17 Oeste 41 Oeste 0 910.7 0.3 20
2019-06-14 18:00:00 26.6 17 Oeste 37 Noroeste 0 910.5 -0.2 22
2019-06-14 17:00:00 26.9 12 Oeste 37 Sudoeste 0 910.2 -1 23
2019-06-14 16:00:00 26.5 17 Oeste 44 Sudoeste 0 910.4 -1.1 23
2019-06-14 15:00:00 25.3 14 Oeste 34 Oeste 0 910.7 -1.2 33
2019-06-14 14:00:00 23.8 10 Sudoeste 21 Sudoeste 0 911.2 -0.3 38
2019-06-14 13:00:00 21 6 Sudoeste 19 Sudoeste 0 911.5 0 53
2019-06-14 12:00:00 17.7 6 Este 14 Noroeste 0 911.9 0.7 74
2019-06-14 11:00:00 16.3 8 Noroeste 23 Noroeste 0 911.5 0.2 81
2019-06-14 10:00:00 15.1 3 Noroeste 13 Sudoeste 0 911.5 1 81
2019-06-14 09:00:00 13.9 6 Sur 14 Sudeste 0 911.2 0.9 83
2019-06-14 08:00:00 12.7 4 Sur 8 Sudeste 0 911.3 0.9 87
2019-06-14 07:00:00 12 4 Sudeste 11 Sudeste 0 910.5 0 86
2019-06-14 06:00:00 12.8 0 Calma 10 Este 0 910.3 -0.2 85
2019-06-14 05:00:00 13.3 7 Sudeste 10 Sudeste 0 910.4 -0.5 85
2019-06-14 04:00:00 13.7 5 Sudeste 9 Sudeste 0 910.5 -0.8 82
2019-06-14 03:00:00 14.8 5 Sudeste 12 Sudoeste 0 910.5 -0.8 77
2019-06-14 02:00:00 16.2 5 Sudoeste 12 Este 0 910.9 -0.1 71
2019-06-14 01:00:00 16.7 3 Sur 9 Sudeste 0 911.3 1 68
2019-06-14 00:00:00 17.1 5 Sudeste 12 Este 0 911.3 1.6 64
2019-06-13 23:00:00 18.4 6 Sudeste 17 Sur 0 911 1.6 60
2019-06-13 22:00:00 20 8 Sur 20 Sur 0 910.3 1.2 53
2019-06-13 21:00:00 21.8 15 Sudeste 28 Sudeste 0 909.7 0.3 45
2019-06-13 20:00:00 23 21 Sudeste 29 Sudeste 0 909.4 -0.4 41
2019-06-13 19:00:00 24.8 10 Sur 33 Sudeste 0 909.1 -1.2 33
2019-06-13 18:00:00 26.2 14 Sur 31 Sudeste 0 909.4 -1.6 32
2019-06-13 17:00:00 26.1 14 Sudeste 28 Sudeste 0 909.8 -1.7 30
2019-06-13 16:00:00 25.8 12 Sudoeste 27 Sur 0 910.3 -1.6 32
2019-06-13 15:00:00 23.4 17 Sudoeste 39 Sudoeste 0 911 -1.2 38
2019-06-13 14:00:00 22.7 18 Sur 40 Sudoeste 0 911.5 -0.7 44
2019-06-13 13:00:00 22.1 17 Sur 37 Sudoeste 0 911.9 -0.2 46
2019-06-13 12:00:00 21.4 20 Sur 38 Sudoeste 0 912.2 0.4 46
2019-06-13 11:00:00 19 25 Sudoeste 44 Sudoeste 0 912.2 0.6 55
2019-06-13 10:00:00 18.2 24 Sudoeste 45 Sur 0 912.1 0.7 58
2019-06-13 09:00:00 17.3 16 Sur 35 Sur 0 911.8 0.5 62
2019-06-13 08:00:00 14.8 12 Sur 24 Sur 0 911.6 0.2 71
2019-06-13 07:00:00 12 11 Sur 21 Sudeste 0 911.4 -0.1 78
2019-06-13 06:00:00 12.1 14 Sudeste 30 Sur 0 911.3 -0.7 74
2019-06-13 05:00:00 12.3 16 Sur 32 Sur 0 911.4 -0.7 72
2019-06-13 04:00:00 11.7 14 Sur 29 Sur 0 911.5 -0.7 71
2019-06-13 03:00:00 11.4 10 Sudeste 17 Sur 0 912 0 61
2019-06-13 02:00:00 12.4 11 Sur 28 Sudeste 0 912.1 0.4 58
2019-06-13 01:00:00 12.9 12 Sudeste 17 Sudeste 0 912.2 1.2 58
2019-06-13 00:00:00 14.2 10 Sur 25 Sur 0 912 1.2 54
2019-06-12 23:00:00 15.3 9 Sudeste 27 Este 0 911.7 1.2 52
2019-06-12 22:00:00 16.7 18 Este 31 Nordeste 0 911 0.8 49
2019-06-12 21:00:00 18 21 Este 39 Este 0 910.8 0.2 36
2019-06-12 20:00:00 18.9 26 Este 39 Este 0 910.5 -0.5 31
2019-06-12 19:00:00 22.1 18 Este 36 Nordeste 0 910.2 -1.6 25
2019-06-12 18:00:00 22.7 5 Norte 22 Sudoeste 0 910.6 -1.7 20
2019-06-12 17:00:00 22.4 7 Sur 19 Oeste 0 911 -2.2 21
2019-06-12 16:00:00 21.6 9 Sur 23 Sur 0 911.8 -1.7 23
2019-06-12 15:00:00 19.9 7 Noroeste 21 Este 0 912.3 -1.6 28
2019-06-12 14:00:00 18.9 9 Este 17 Este 0 913.2 -0.9 30
2019-06-12 13:00:00 18.1 5 Norte 19 Sudoeste 0 913.5 -1 34
2019-06-12 12:00:00 16.6 5 Oeste 21 Sur 0 913.9 -0.7 34
2019-06-12 11:00:00 15 5 Sudeste 14 Sudeste 0 914.1 -0.1 46
2019-06-12 10:00:00 10.7 3 Nordeste 12 Sudeste 0 914.5 0.7 63
2019-06-12 09:00:00 7.6 6 Sudeste 13 Sudeste 0 914.6 0.8 72
2019-06-12 08:00:00 4 7 Sur 10 Sur 0 914.2 0.3 81
2019-06-12 07:00:00 1 2 Sudoeste 5 Sur 0 913.8 -0.5 91
2019-06-12 06:00:00 1 2 Este 3 Sudeste 0 913.8 -0.5 90
2019-06-12 05:00:00 1.6 2 Norte 5 Sur 0 913.9 -0.5 90
2019-06-12 04:00:00 2.5 2 Sudoeste 8 Sur 0 914.3 -0.6 88
2019-06-12 03:00:00 3.3 0 Calma 8 Sur 0 914.3 -0.8 85
2019-06-12 02:00:00 4.3 5 Sur 8 Sur 0 914.4 -0.5 82
2019-06-12 01:00:00 5.7 2 Sudeste 6 Noroeste 0 914.9 0.6 80
2019-06-12 00:00:00 7 3 Norte 9 Norte 0 915.1 1.2 75
2019-06-11 23:00:00 8.8 5 Nordeste 17 Norte 0 914.9 1.3 70
2019-06-11 22:00:00 10.3 4 Norte 17 Norte 0 914.3 0.9 61
2019-06-11 21:00:00 12.2 11 Norte 21 Norte 0 913.9 0.3 54
2019-06-11 20:00:00 13.8 5 Noroeste 16 Norte 0 913.6 -0.4 50
2019-06-11 19:00:00 14.2 4 Noroeste 12 Noroeste 0 913.4 0 51
2019-06-11 18:00:00 10.6 3 Nordeste 21 Noroeste 0 913.6 0.1 68
2019-06-11 17:00:00 9.8 7 Noroeste 35 Norte 0 914 0.3 75
2019-06-11 16:00:00 12.7 7 Norte 17 Nordeste 0 913.4 -0.1 63
2019-06-11 15:00:00 10.6 4 Norte 13 Noroeste 0 913.5 0.2 74
2019-06-11 14:00:00 8.8 5 Noroeste 23 Nordeste 0 913.7 0.7 81
2019-06-11 13:00:00 8.2 9 Norte 25 Norte 0 913.5 0.7 81
2019-06-11 12:00:00 8.2 11 Norte 27 Norte 0 913.3 0.8 79
2019-06-11 11:00:00 8.3 10 Norte 27 Norte 0 913 0.9 77
2019-06-11 10:00:00 8.4 10 Norte 28 Nordeste 0 912.8 0.8 77
2019-06-11 09:00:00 8.2 11 Norte 28 Norte 0 912.5 0.5 75
2019-06-11 08:00:00 8.4 6 Norte 16 Noroeste 0 912.1 0.1 77
2019-06-11 07:00:00 8.2 6 Norte 22 Norte 0 912 -0.5 73
2019-06-11 06:00:00 8.9 10 Norte 24 Nordeste 0 912 -0.8 66
2019-06-11 05:00:00 9.1 11 Nordeste 25 Norte 0 912 -1.5 63
2019-06-11 04:00:00 9.8 6 Norte 20 Norte 0 912.5 -1.6 65
2019-06-11 03:00:00 9.9 2 Oeste 5 Sudoeste 0 912.8 -1.9 64
2019-06-11 02:00:00 9.6 0 Calma 5 Sudeste 0 913.5 -0.9 66
2019-06-11 01:00:00 9.6 4 Nordeste 14 Norte 0 914.1 0.2 64
2019-06-11 00:00:00 10.3 9 Norte 21 Norte 0 914.7 1.3 63
2019-06-10 23:00:00 11.3 11 Nordeste 29 Norte 0 914.4 1.7 62
2019-06-10 22:00:00 12.7 14 Nordeste 30 Norte 0 913.9 1.3 58
2019-06-10 21:00:00 14.7 17 Norte 35 Nordeste 0 913.4 0.7 53
2019-06-10 20:00:00 15.9 14 Norte 35 Norte 0 912.7 0 49
2019-06-10 19:00:00 17.9 15 Nordeste 33 Nordeste 0 912.6 -0.3 45
2019-06-10 18:00:00 20 16 Nordeste 35 Nordeste 0 912.7 -1 42
2019-06-10 17:00:00 22.8 13 Norte 28 Norte 0 912.7 -1.7 34
2019-06-10 16:00:00 23.4 10 Norte 28 Norte 0 912.9 -2 32
2019-06-10 15:00:00 22.3 8 Norte 24 Norte 0 913.7 -1.5 37
2019-06-10 14:00:00 21.2 9 Noroeste 20 Noroeste 0 914.4 -1.1 39
2019-06-10 13:00:00 20.1 7 Norte 18 Norte 0 914.9 -1 48
2019-06-10 12:00:00 18.3 5 Nordeste 14 Norte 0 915.2 -0.5 55
2019-06-10 11:00:00 16.4 4 Nordeste 12 Norte 0 915.5 -0.4 62
2019-06-10 10:00:00 13.9 4 Norte 10 Norte 0 915.9 0.2 71
2019-06-10 09:00:00 12.8 2 Norte 5 Norte 0 915.7 0.1 76
2019-06-10 08:00:00 11.5 2 Oeste 12 Norte 0 915.9 0.1 82
2019-06-10 07:00:00 10.9 6 Norte 12 Nordeste 0 915.7 -0.4 85
2019-06-10 06:00:00 10.9 6 Nordeste 17 Norte 0 915.6 -0.8 84
2019-06-10 05:00:00 11.2 7 Nordeste 18 Nordeste 0 915.8 -0.3 84
2019-06-10 04:00:00 10.9 7 Norte 24 Norte 0 916.1 0.2 86
2019-06-10 03:00:00 11 6 Norte 21 Norte 0 916.4 0.9 86
2019-06-10 02:00:00 11.4 9 Norte 25 Nordeste 0 916.1 1 84
2019-06-10 01:00:00 12.2 8 Norte 21 Noroeste 0 915.9 1.8 81
2019-06-10 00:00:00 13.9 9 Norte 21 Norte 0 915.5 2.3 74
2019-06-09 23:00:00 16.2 10 Norte 34 Norte 0 915.1 2.2 64
2019-06-09 22:00:00 19.5 18 Norte 37 Nordeste 0 914.1 1.5 54
2019-06-09 21:00:00 24.5 8 Oeste 22 Oeste 0 913.2 0.4 21
2019-06-09 20:00:00 25.6 6 Oeste 25 Sudoeste 0 912.9 0.1 21
2019-06-09 19:00:00 27.4 10 Noroeste 24 Oeste 0 912.6 -0.6 20
2019-06-09 18:00:00 27.8 8 Noroeste 33 Noroeste 0 912.8 -0.9 22
2019-06-09 17:00:00 28.1 10 Oeste 33 Oeste 0 912.8 -1.6 21
2019-06-09 16:00:00 28.2 10 Noroeste 29 Sudoeste 0 913.2 -1.8 20
2019-06-09 15:00:00 27.3 10 Oeste 29 Oeste 0 913.7 -1.6 23
2019-06-09 14:00:00 26.2 14 Oeste 36 Oeste 0 914.4 -1.3 24
2019-06-09 13:00:00 25.5 10 Noroeste 24 Sudoeste 0 915 -1 28
2019-06-09 12:00:00 24.1 5 Oeste 14 Sudoeste 0 915.3 -1 36
2019-06-09 11:00:00 22.3 8 Sur 15 Sudoeste 0 915.7 -0.4 38
2019-06-09 10:00:00 19.6 4 Sudeste 13 Sudoeste 0 916 0 43
2019-06-09 09:00:00 17.1 8 Sudeste 12 Sudoeste 0 916.3 0 48
2019-06-09 08:00:00 15.2 3 Este 8 Este 0 916.1 -0.5 54
2019-06-09 07:00:00 12.8 0 Calma 10 Sudoeste 0 916 -0.6 60
2019-06-09 06:00:00 13.9 6 Este 14 Sudeste 0 916.3 -1 54
2019-06-09 05:00:00 14.4 2 Sudeste 10 Sudeste 0 916.6 -1.1 52
2019-06-09 04:00:00 14.5 3 Sur 10 Sudeste 0 916.6 -1.3 49
2019-06-09 03:00:00 14.8 5 Este 17 Sudoeste 0 917.3 -1.1 48
2019-06-09 02:00:00 15.6 5 Sudeste 13 Oeste 0 917.7 -0.7 46
2019-06-09 01:00:00 16.8 7 Sudoeste 21 Sur 0 917.9 0.2 45
2019-06-09 00:00:00 17 7 Sur 22 Sudeste 0 918.4 1.5 47
2019-06-08 23:00:00 17.6 10 Sudeste 27 Sudeste 0 918.4 1.7 46
2019-06-08 22:00:00 19.1 14 Sudeste 41 Sudoeste 0 917.7 1.3 44
2019-06-08 21:00:00 21 18 Sudoeste 40 Sur 0 916.9 0.2 39
2019-06-08 20:00:00 22.8 18 Sur 39 Sudoeste 0 916.7 -0.2 37
2019-06-08 19:00:00 25 21 Sur 40 Sudoeste 0 916.4 -1.2 34
2019-06-08 18:00:00 25.7 20 Sur 38 Sur 0 916.7 -1.6 33
2019-06-08 17:00:00 26.7 15 Sur 35 Sur 0 916.9 -2.3 31
2019-06-08 16:00:00 26.5 15 Sur 42 Sudoeste 0 917.6 -1.9 31
2019-06-08 15:00:00 26.2 16 Sur 33 Sudoeste 0 918.3 -1.8 32
2019-06-08 14:00:00 24.8 18 Sudoeste 32 Sur 0 919.2 -1.5 32
2019-06-08 13:00:00 23.4 6 Sudoeste 17 Sudoeste 0 919.5 -1.4 33
2019-06-08 12:00:00 21.2 6 Sudoeste 17 Sudoeste 0 920.1 -1 34
2019-06-08 11:00:00 18.6 5 Oeste 29 Sudeste 0 920.7 -0.6 38
2019-06-08 10:00:00 16.8 6 Este 16 Este 0 920.9 -0.2 41
2019-06-08 09:00:00 11.7 5 Noroeste 9 Norte 0 921.1 0.2 62
2019-06-08 08:00:00 6.9 2 Noroeste 4 Norte 0 921.3 0.4 77
2019-06-08 07:00:00 4.3 0 Calma 3 Norte 0 921.1 0.2 84
2019-06-08 06:00:00 4.5 0 Calma 3 Norte 0 920.9 0 79
2019-06-08 05:00:00 4.9 2 Nordeste 4 Noroeste 0 920.9 0.3 79
2019-06-08 04:00:00 5.6 0 Calma 4 Noroeste 0 920.9 0.3 75
2019-06-08 03:00:00 6.6 2 Noroeste 5 Norte 0 920.9 0.6 73
2019-06-08 02:00:00 7.2 3 Nordeste 7 Este 0 920.6 0.9 69
2019-06-08 01:00:00 8.5 3 Nordeste 7 Este 0 920.6 2.3 63
2019-06-08 00:00:00 10.9 0 Calma 6 Norte 0 920.3 2.6 53
2019-06-07 23:00:00 13.1 2 Sudoeste 8 Sudeste 0 919.7 2.4 44
2019-06-07 22:00:00 15 5 Norte 15 Noroeste 0 918.3 1.7 39
2019-06-07 21:00:00 17.2 6 Norte 17 Norte 0 917.7 1.5 34
2019-06-07 20:00:00 19 7 Norte 18 Norte 0 917.3 1.4 31
2019-06-07 19:00:00 19.9 7 Norte 27 Nordeste 0 916.6 0.7 29
2019-06-07 18:00:00 20.3 8 Norte 27 Norte 0 916.2 0.6 28
2019-06-07 17:00:00 20.6 9 Norte 25 Noroeste 0 915.9 0.7 29
2019-06-07 16:00:00 19.2 11 Norte 26 Norte 0 915.9 0.9 32
2019-06-07 15:00:00 18.4 6 Norte 30 Norte 0 915.6 1.3 33
2019-06-07 14:00:00 18.7 13 Oeste 31 Noroeste 0 915.2 1 33
2019-06-07 13:00:00 17.2 14 Oeste 35 Sudoeste 0 915 1.6 34
2019-06-07 12:00:00 15.7 13 Oeste 36 Noroeste 0 914.3 2 42
2019-06-07 11:00:00 12.9 5 Norte 22 Nordeste 0 914.2 2.4 63
2019-06-07 10:00:00 10.8 13 Noroeste 26 Noroeste 0 913.4 3.4 74
2019-06-07 09:00:00 9.2 10 Norte 25 Norte 0 912.3 3 89
2019-06-07 08:00:00 9.4 10 Norte 30 Norte 0 911.8 2.6 81
2019-06-07 07:00:00 12.5 11 Sudoeste 23 Sudoeste 0 910 1.1 72
2019-06-07 06:00:00 12.4 13 Sudoeste 27 Sudoeste 0 909.3 0.5 73
2019-06-07 05:00:00 12.9 14 Sudoeste 22 Sudoeste 0 909.2 0.2 75
2019-06-07 04:00:00 13.9 9 Sudoeste 25 Sudoeste 0 908.9 -0.6 68
2019-06-07 03:00:00 14.5 12 Sudoeste 27 Sudoeste 0 908.8 -0.6 66
2019-06-07 02:00:00 13.7 11 Sudoeste 21 Sudoeste 0 909 0.1 67
2019-06-07 01:00:00 14.2 12 Sur 32 Sur 0 909.5 1.3 59
2019-06-07 00:00:00 15.1 15 Sur 33 Sur 0 909.4 1.4 55
2019-06-06 23:00:00 16.5 15 Sur 35 Sur 0 908.9 1.3 49
2019-06-06 22:00:00 17.7 15 Sur 37 Sur 0 908.2 0.3 48
2019-06-06 21:00:00 19.7 15 Sur 40 Sur 0 908 -0.6 42
2019-06-06 20:00:00 22.3 21 Sur 44 Sudoeste 0 907.6 -1.5 35
2019-06-06 19:00:00 23.6 20 Sudoeste 49 Oeste 0 907.9 -2 24
2019-06-06 18:00:00 23.4 19 Sudoeste 53 Sudoeste 0 908.6 -2 23
2019-06-06 17:00:00 23.7 18 Sudoeste 39 Oeste 0 909.1 -1.9 23
2019-06-06 16:00:00 23.3 22 Sudoeste 44 Sudoeste 0 909.9 -1.7 21
2019-06-06 15:00:00 22.9 22 Sudoeste 45 Sudoeste 0 910.6 -1.6 21
2019-06-06 14:00:00 23.1 18 Sur 35 Sudoeste 0 911 -1.5 20
2019-06-06 13:00:00 21.7 11 Sudoeste 32 Sudeste 0 911.6 -1.7 23
2019-06-06 12:00:00 19.7 12 Sur 34 Sudoeste 0 912.2 -1.3 29
2019-06-06 11:00:00 17.6 10 Sudoeste 22 Sudoeste 0 912.5 -1.1 34
2019-06-06 10:00:00 14 5 Sur 12 Sur 0 913.3 -0.2 53
2019-06-06 09:00:00 10.8 5 Sur 8 Sur 0 913.5 0 70
2019-06-06 08:00:00 7.4 4 Sur 9 Sudeste 0 913.6 0.1 83
2019-06-06 07:00:00 3.6 3 Sudeste 5 Sur 0 913.5 0.1 89
2019-06-06 06:00:00 4.7 4 Sur 6 Sudeste 0 913.5 0.2 86
2019-06-06 05:00:00 5.4 4 Sudeste 5 Sudeste 0 913.5 0 87
2019-06-06 04:00:00 6.3 0 Calma 8 Este 0 913.4 -0.4 89
2019-06-06 03:00:00 7.3 4 Sudeste 10 Sudeste 0 913.3 -0.3 86
2019-06-06 02:00:00 7.5 4 Norte 8 Este 0 913.5 0.1 85
2019-06-06 01:00:00 8.6 0 Calma 6 Nordeste 0 913.8 1.3 81
2019-06-06 00:00:00 9.4 3 Norte 9 Nordeste 0 913.6 1.4 79
2019-06-05 23:00:00 10.4 3 Norte 8 Noroeste 0 913.4 1.8 74
2019-06-05 22:00:00 12 4 Noroeste 19 Nordeste 0 912.5 1.2 68
2019-06-05 21:00:00 13.5 12 Nordeste 26 Nordeste 0 912.2 0.7 62
2019-06-05 20:00:00 15.2 19 Norte 31 Norte 0 911.6 0.4 55
2019-06-05 19:00:00 18.2 9 Noroeste 31 Oeste 0 911.3 0 36
2019-06-05 18:00:00 17.1 8 Noroeste 28 Norte 0 911.5 0.1 42
2019-06-05 17:00:00 16.8 12 Norte 33 Norte 0 911.2 -0.1 44
2019-06-05 16:00:00 14.7 13 Norte 30 Noroeste 0 911.3 0 55
2019-06-05 15:00:00 14.8 15 Norte 44 Noroeste 0 911.4 2.1 54
2019-06-05 14:00:00 15.2 15 Noroeste 39 Noroeste 0 911.3 3.2 52
2019-06-05 13:00:00 10.9 14 Noroeste 66 Noroeste 0.6 911.3 3.2 75
2019-06-05 12:00:00 16.5 13 Noroeste 42 Oeste 0 909.3 1.8 46
2019-06-05 11:00:00 16.1 14 Oeste 38 Noroeste 0 908.1 1 48
2019-06-05 10:00:00 13.2 12 Norte 34 Oeste 0 908.1 1.5 72
2019-06-05 09:00:00 14.5 11 Oeste 32 Oeste 0 907.5 0.7 69
2019-06-05 08:00:00 13 5 Sudoeste 18 Sudeste 0 907.1 0.3 78
2019-06-05 07:00:00 11.9 5 Norte 14 Norte 0 906.6 -0.3 79
2019-06-05 06:00:00 12.8 3 Norte 14 Norte 0 906.8 -0.7 78
2019-06-05 05:00:00 13.6 3 Noroeste 8 Norte 0 906.8 -1.1 76
2019-06-05 04:00:00 14.4 5 Norte 15 Norte 0 906.9 -1.5 72
2019-06-05 03:00:00 15.4 5 Norte 11 Norte 0 907.5 -1 69
2019-06-05 02:00:00 16 6 Norte 11 Nordeste 0 907.9 -0.6 66
2019-06-05 01:00:00 18.2 3 Noroeste 14 Norte 0 908.4 1.1 58
2019-06-05 00:00:00 22.2 6 Noroeste 17 Oeste 0 908.5 1.4 39
2019-06-04 23:00:00 23.1 10 Sur 23 Oeste 0 908.5 1.2 33
2019-06-04 22:00:00 24.9 12 Oeste 30 Oeste 0 907.3 -0.1 29
2019-06-04 21:00:00 26.7 13 Oeste 32 Oeste 0 907.1 -0.9 25
2019-06-04 20:00:00 28 14 Oeste 35 Sudoeste 0 907.3 -1.1 22
2019-06-04 19:00:00 29.7 16 Sudoeste 33 Sudoeste 0 907.4 -1.6 19
2019-06-04 18:00:00 29.6 15 Oeste 34 Sudoeste 0 908 -1.7 20
2019-06-04 17:00:00 31 18 Sudoeste 36 Sudoeste 0 908.4 -2 13
2019-06-04 16:00:00 30.9 15 Oeste 38 Sudoeste 0 909 -1.9 14
2019-06-04 15:00:00 30.7 19 Sudoeste 48 Sur 0 909.7 -1.8 15
2019-06-04 14:00:00 29.6 22 Oeste 43 Oeste 0 910.4 -1.5 18
2019-06-04 13:00:00 29 23 Sudoeste 39 Sudoeste 0 910.9 -1.6 20
2019-06-04 12:00:00 27.8 13 Sudoeste 39 Sudoeste 0 911.5 -1.3 23
2019-06-04 11:00:00 25.9 10 Sudoeste 21 Sudoeste 0 911.9 -0.8 28
2019-06-04 10:00:00 22 4 Sudoeste 11 Sur 0 912.5 -0.1 41
2019-06-04 09:00:00 18.7 6 Sudoeste 10 Sudeste 0 912.8 0.5 47
2019-06-04 08:00:00 15.2 6 Sudeste 13 Sudeste 0 912.7 0.2 57
2019-06-04 07:00:00 11.7 4 Sur 8 Sur 0 912.6 -0.4 71
2019-06-04 06:00:00 12.2 2 Sur 5 Sudeste 0 912.3 -1.2 70
2019-06-04 05:00:00 13.6 0 Calma 6 Sur 0 912.5 -1.5 65
2019-06-04 04:00:00 14.5 4 Sudeste 5 Sudeste 0 913 -1.4 63
2019-06-04 03:00:00 15.6 3 Sur 5 Norte 0 913.5 -1.2 59
2019-06-04 02:00:00 16.6 2 Sudeste 9 Sudeste 0 914 -0.5 55
2019-06-04 01:00:00 17.9 5 Este 9 Sudeste 0 914.4 0.5 51
2019-06-04 00:00:00 19.3 6 Sur 12 Sudeste 0 914.7 1.4 48
2019-06-03 23:00:00 21.4 7 Sudeste 18 Sudeste 0 914.5 1.1 42
2019-06-03 22:00:00 25.2 10 Sudoeste 21 Sudoeste 0 913.9 0.2 32
2019-06-03 21:00:00 28 6 Oeste 28 Oeste 0 913.3 -0.7 18
2019-06-03 20:00:00 29.2 7 Oeste 22 Oeste 0 913.4 -1 18
2019-06-03 19:00:00 30 12 Oeste 29 Oeste 0 913.7 -1.1 19
2019-06-03 18:00:00 30.7 10 Oeste 32 Noroeste 0 914 -1.5 19
2019-06-03 17:00:00 31.2 12 Oeste 34 Oeste 0 914.4 -1.3 18
2019-06-03 16:00:00 31 17 Oeste 39 Oeste 0 914.8 -1.4 19
2019-06-03 15:00:00 29.6 13 Oeste 30 Oeste 0 915.5 -1.3 23
2019-06-03 14:00:00 29.8 6 Sur 16 Oeste 0 915.7 -1.3 24
2019-06-03 13:00:00 29.5 5 Noroeste 12 Oeste 0 916.2 -1.2 27
2019-06-03 12:00:00 26.7 5 Este 11 Este 0 916.8 -0.4 28
2019-06-03 11:00:00 24.6 5 Sudeste 16 Sudeste 0 917 0 31
2019-06-03 10:00:00 22.5 6 Sudoeste 14 Sudoeste 0 917.4 0.5 35
2019-06-03 09:00:00 19.1 4 Sur 8 Sudoeste 0 917.2 0.3 44
2019-06-03 08:00:00 16.6 5 Sudeste 11 Sudeste 0 917 0 51
2019-06-03 07:00:00 13.8 12 Sudeste 17 Sudeste 0 916.9 -0.3 56
2019-06-03 06:00:00 13.1 7 Sudeste 8 Sudeste 0 916.9 -0.3 59
2019-06-03 05:00:00 14.2 7 Sudeste 13 Sudeste 0 917 -0.5 56
2019-06-03 04:00:00 15.9 8 Sudeste 12 Sudeste 0 917.2 -0.5 50
2019-06-03 03:00:00 17.9 2 Noroeste 17 Sudoeste 0 917.2 -0.4 44
2019-06-03 02:00:00 20.1 9 Sur 27 Sudoeste 0 917.5 0.2 36
2019-06-03 01:00:00 20.2 10 Sur 23 Sur 0 917.7 1.3 37
2019-06-03 00:00:00 20.9 7 Sudeste 15 Este 0 917.6 1.6 39
2019-06-02 23:00:00 22.5 7 Este 22 Sur 0 917.3 1.8 35
2019-06-02 22:00:00 24.5 14 Sudeste 23 Sudeste 0 916.4 0.9 32
2019-06-02 21:00:00 27.6 10 Sudeste 23 Sudeste 0 916 0.3 28
2019-06-02 20:00:00 29.7 10 Este 23 Este 0 915.5 -0.6 24
2019-06-02 19:00:00 30.5 5 Nordeste 14 Oeste 0 915.5 -1 21
2019-06-02 18:00:00 31.7 6 Norte 21 Noroeste 0 915.7 -1.3 19
2019-06-02 17:00:00 30.8 5 Oeste 20 Noroeste 0 916.1 -1.7 18
2019-06-02 16:00:00 32.2 7 Noroeste 19 Noroeste 0 916.5 -2.1 20
2019-06-02 15:00:00 31 4 Sur 16 Noroeste 0 917 -1.9 20
2019-06-02 14:00:00 29.5 6 Norte 17 Norte 0 917.8 -1.4 25
2019-06-02 13:00:00 28 6 Este 13 Este 0 918.6 -0.9 23
2019-06-02 12:00:00 26.4 4 Sudeste 8 Sudoeste 0 918.9 -0.7 31
2019-06-02 11:00:00 23.1 4 Sur 9 Sudoeste 0 919.2 -0.4 38
2019-06-02 10:00:00 19 4 Sudoeste 10 Sudeste 0 919.5 -0.1 45
2019-06-02 09:00:00 16.8 5 Sur 10 Sur 0 919.6 0.3 50
2019-06-02 08:00:00 13.7 5 Sur 14 Sudeste 0 919.6 0.2 57
2019-06-02 07:00:00 11.3 12 Sudeste 16 Sudeste 0 919.6 0.1 63
2019-06-02 06:00:00 11.5 8 Sudeste 12 Sudeste 0 919.3 -0.4 66
2019-06-02 05:00:00 12.3 9 Sudeste 12 Sudeste 0 919.4 -0.4 65
2019-06-02 04:00:00 13.7 7 Sudeste 10 Sudeste 0 919.5 -0.2 61
2019-06-02 03:00:00 13.5 3 Sudoeste 8 Este 0 919.7 -0.2 68
2019-06-02 02:00:00 14.6 0 Calma 6 Sudeste 0 919.8 0.3 63
2019-06-02 01:00:00 16.2 0 Calma 4 Sudoeste 0 919.7 0.7 57
2019-06-02 00:00:00 18.4 0 Calma 18 Sudeste 0 919.9 1.7 51
2019-06-01 23:00:00 20.4 9 Sur 14 Sur 0 919.5 1.7 44
2019-06-01 22:00:00 23.1 7 Sur 19 Este 0 919 1.2 33
2019-06-01 21:00:00 25.3 13 Nordeste 28 Este 0 918.2 0.1 30
2019-06-01 20:00:00 27.2 15 Nordeste 27 Este 0 917.8 -0.8 28
2019-06-01 19:00:00 28.5 12 Nordeste 23 Nordeste 0 917.8 -1.3 29
2019-06-01 18:00:00 30.9 4 Oeste 15 Sudeste 0 918.1 -1.5 15
2019-06-01 17:00:00 29.7 10 Este 22 Este 0 918.6 -1.7 15
2019-06-01 16:00:00 29.2 6 Nordeste 21 Norte 0 919.1 -1.8 17
2019-06-01 15:00:00 29.5 6 Sudoeste 16 Sudoeste 0 919.6 -1.8 21
2019-06-01 14:00:00 27.9 5 Sudoeste 12 Norte 0 920.3 -1.3 23
2019-06-01 13:00:00 26.5 4 Noroeste 10 Norte 0 920.9 -1.2 33
2019-06-01 12:00:00 24.3 5 Sudeste 11 Sudoeste 0 921.4 -0.8 33
2019-06-01 11:00:00 21.5 5 Sur 12 Oeste 0 921.6 -0.4 45
2019-06-01 10:00:00 17.8 6 Sudoeste 10 Sudoeste 0 922.1 0.3 55
2019-06-01 09:00:00 14.7 8 Sudoeste 14 Sudoeste 0 922.2 0.7 63
2019-06-01 08:00:00 12.6 8 Sudeste 12 Sur 0 922 0.4 71
2019-06-01 07:00:00 9.4 4 Sur 12 Sur 0 921.8 0.2 79
2019-06-01 06:00:00 10.9 7 Sur 11 Sudeste 0 921.5 -0.1 77
2019-06-01 05:00:00 11.3 8 Sudeste 11 Sudeste 0 921.6 0 77
2019-06-01 04:00:00 12 8 Sudeste 12 Sudeste 0 921.6 -0.2 75
2019-06-01 03:00:00 12.3 8 Sudeste 14 Sudeste 0 921.6 -0.4 73
2019-06-01 02:00:00 14 8 Sudeste 13 Sudeste 0 921.6 -0.1 62
2019-06-01 01:00:00 14.7 9 Sudeste 12 Sudeste 0 921.8 0.9 58
2019-06-01 00:00:00 15.9 6 Sudeste 12 Sudeste 0 922 1.3 56
2019-05-31 23:00:00 18.6 8 Sudeste 21 Este 0 921.7 1.2 47
2019-05-31 22:00:00 20.9 12 Este 22 Nordeste 0 920.9 0.6 41
2019-05-31 21:00:00 23.6 7 Nordeste 17 Nordeste 0 920.7 0.4 29
2019-05-31 20:00:00 25.7 9 Nordeste 22 Nordeste 0 920.5 -0.2 26
2019-05-31 19:00:00 27 11 Nordeste 24 Nordeste 0 920.3 -0.8 28
2019-05-31 18:00:00 28.3 4 Norte 18 Nordeste 0 920.3 -1.3 18
2019-05-31 17:00:00 28.4 6 Nordeste 17 Nordeste 0 920.7 -1.3 20
2019-05-31 16:00:00 27.7 6 Este 17 Nordeste 0 921.1 -1.4 21
2019-05-31 15:00:00 27.9 4 Noroeste 12 Oeste 0 921.6 -1.2 22
2019-05-31 14:00:00 26.9 7 Sudoeste 17 Sudeste 0 922 -1.1 23
2019-05-31 13:00:00 24.8 5 Este 10 Este 0 922.5 -1.1 24
2019-05-31 12:00:00 23.1 5 Sudeste 14 Sur 0 922.8 -0.7 34
2019-05-31 11:00:00 20.5 6 Sudeste 13 Sudeste 0 923.1 -0.3 43
2019-05-31 10:00:00 17.1 7 Sur 15 Sur 0 923.6 0.1 53
2019-05-31 09:00:00 14 7 Sur 11 Sur 0 923.5 0.3 61
2019-05-31 08:00:00 9.1 3 Sudoeste 5 Sudoeste 0 923.4 0.1 75
2019-05-31 07:00:00 5.5 0 Calma 3 Noroeste 0 923.5 0.3 88
2019-05-31 06:00:00 6.1 0 Calma 5 Noroeste 0 923.2 -0.4 86
2019-05-31 05:00:00 6.6 0 Calma 5 Noroeste 0 923.3 -0.5 85
2019-05-31 04:00:00 7.4 2 Nordeste 5 Sur 0 923.2 -0.6 81
2019-05-31 03:00:00 8.9 2 Sudeste 6 Sudoeste 0 923.6 -0.4 73
2019-05-31 02:00:00 10.1 0 Calma 9 Sur 0 923.8 0.1 71
2019-05-31 01:00:00 11.1 6 Sur 7 Sudeste 0 923.8 0.9 66
2019-05-31 00:00:00 13.2 3 Sudeste 5 Sur 0 924 1.5 64
2019-05-30 23:00:00 15.8 3 Oeste 5 Oeste 0 923.7 1.5 54
2019-05-30 22:00:00 18.7 3 Norte 12 Norte 0 922.9 0.7 43
2019-05-30 21:00:00 21.3 6 Norte 20 Norte 0 922.5 0.2 34
2019-05-30 20:00:00 23.1 8 Norte 22 Norte 0 922.2 -0.3 28
2019-05-30 19:00:00 24.1 10 Norte 23 Norte 0 922.2 -0.5 27
2019-05-30 18:00:00 24.9 11 Norte 29 Norte 0 922.3 -0.7 29
2019-05-30 17:00:00 25 11 Norte 28 Nordeste 0 922.5 -0.8 30
2019-05-30 16:00:00 24.2 12 Nordeste 22 Norte 0 922.7 -0.9 28
2019-05-30 15:00:00 23.6 10 Nordeste 26 Norte 0 923 -1.1 29
2019-05-30 14:00:00 23.3 7 Noroeste 18 Oeste 0 923.3 -0.9 37
2019-05-30 13:00:00 21.3 4 Norte 14 Noroeste 0 923.6 -0.8 43
2019-05-30 12:00:00 18.7 5 Nordeste 11 Este 0 924.1 -0.2 45
2019-05-30 11:00:00 16.5 6 Nordeste 14 Nordeste 0 924.2 0.2 50
2019-05-30 10:00:00 14.7 5 Sudoeste 9 Sudeste 0 924.4 0.7 59
2019-05-30 09:00:00 11.3 2 Sur 4 Este 0 924.3 0.8 70
2019-05-30 08:00:00 7.3 3 Norte 4 Nordeste 0 924 0.7 82
2019-05-30 07:00:00 4.3 3 Sudeste 8 Sudeste 0 923.7 0.2 89
2019-05-30 06:00:00 4.7 3 Sur 6 Sudoeste 0 923.5 -0.2 87
2019-05-30 05:00:00 5.4 3 Este 4 Este 0 923.3 -0.5 87
2019-05-30 04:00:00 6.3 3 Sudeste 8 Sur 0 923.5 -0.1 84
2019-05-30 03:00:00 7.6 4 Sudeste 9 Oeste 0 923.7 0.3 79
2019-05-30 02:00:00 9.2 3 Sudeste 13 Sudeste 0 923.8 0.9 76
2019-05-30 01:00:00 10.6 3 Noroeste 12 Nordeste 0 923.6 1.5 69
2019-05-30 00:00:00 12.2 3 Noroeste 19 Noroeste 0 923.4 2 62
2019-05-29 23:00:00 12.7 8 Este 15 Oeste 0 922.9 2 62
2019-05-29 22:00:00 13.8 7 Noroeste 21 Noroeste 0 922.1 1.4 56
2019-05-29 21:00:00 15.4 10 Noroeste 30 Nordeste 0 921.4 1 51
2019-05-29 20:00:00 17 16 Norte 35 Norte 0 920.9 0.3 47
2019-05-29 19:00:00 18.3 13 Norte 39 Norte 0 920.7 -0.2 43
2019-05-29 18:00:00 18.9 15 Norte 48 Noroeste 0 920.4 -0.6 42
2019-05-29 17:00:00 19.1 12 Norte 38 Norte 0 920.6 -0.7 40
2019-05-29 16:00:00 18.4 14 Norte 40 Norte 0 920.9 -0.7 35
2019-05-29 15:00:00 18 12 Norte 33 Norte 0 921 -0.4 42
2019-05-29 14:00:00 17.2 12 Norte 35 Norte 0 921.3 -0.2 38
2019-05-29 13:00:00 15.8 13 Norte 45 Norte 0 921.6 -0.3 49
2019-05-29 12:00:00 14.9 14 Norte 42 Nordeste 0 921.4 -0.2 51
2019-05-29 11:00:00 13.6 10 Noroeste 37 Norte 0 921.5 0.1 54
2019-05-29 10:00:00 10.9 5 Norte 18 Norte 0 921.9 0.9 64
2019-05-29 09:00:00 10.1 5 Norte 12 Norte 0 921.6 0.9 65
2019-05-29 08:00:00 6.3 2 Oeste 9 Sudeste 0 921.4 1 77
2019-05-29 07:00:00 3.1 5 Sudeste 13 Sur 0 921 0.4 86
2019-05-29 06:00:00 4.2 3 Noroeste 11 Sudeste 0 920.7 0 82
2019-05-29 05:00:00 4.6 6 Sur 8 Sur 0 920.4 -0.2 79
2019-05-29 04:00:00 6 4 Sudoeste 7 Norte 0 920.6 0.2 76
2019-05-29 03:00:00 7.3 5 Oeste 10 Norte 0 920.7 0.8 69
2019-05-29 02:00:00 7.7 3 Noroeste 19 Nordeste 0 920.6 0.9 70
2019-05-29 01:00:00 8.3 5 Norte 19 Norte 0 920.4 1.2 70
2019-05-29 00:00:00 8.9 5 Norte 22 Noroeste 0 919.9 1.6 68
2019-05-28 23:00:00 9.7 6 Noroeste 21 Noroeste 0 919.7 2 67
2019-05-28 22:00:00 10.6 10 Norte 36 Nordeste 0 919.2 2.2 65
2019-05-28 21:00:00 12.3 15 Norte 35 Norte 0 918.3 1.7 57
2019-05-28 20:00:00 13.8 18 Norte 41 Norte 0 917.7 1.8 55
2019-05-28 19:00:00 15.8 17 Norte 41 Nordeste 0 917 1.1 49
2019-05-28 18:00:00 17.4 16 Norte 35 Norte 0 916.6 0.7 44
2019-05-28 17:00:00 18 12 Norte 36 Nordeste 0 915.9 -0.5 46
2019-05-28 16:00:00 18.8 12 Norte 26 Norte 0 915.9 -0.7 42
2019-05-28 15:00:00 18.2 9 Norte 24 Noroeste 0 915.9 -0.8 41
2019-05-28 14:00:00 17.3 8 Norte 23 Norte 0 916.4 -0.2 41
2019-05-28 13:00:00 15.9 9 Noroeste 23 Noroeste 0 916.6 -0.1 47
2019-05-28 12:00:00 14.1 8 Norte 25 Norte 0 916.7 0.4 53
2019-05-28 11:00:00 13.1 5 Norte 15 Norte 0 916.6 0.6 58
2019-05-28 10:00:00 11.2 7 Norte 17 Norte 0 916.7 1.3 63
2019-05-28 09:00:00 10.7 4 Norte 14 Norte 0 916.3 1.3 66
2019-05-28 08:00:00 8.1 5 Norte 15 Nordeste 0 916 1.3 84
2019-05-28 07:00:00 6.3 0 Calma 5 Norte 0 915.4 0.6 90
2019-05-28 06:00:00 6.8 4 Norte 7 Norte 0 915 -0.1 89
2019-05-28 05:00:00 6.6 3 Noroeste 4 Noroeste 0 914.7 -1 89
2019-05-28 04:00:00 7.8 2 Oeste 12 Norte 0 914.8 -0.9 83
2019-05-28 03:00:00 8.7 6 Norte 14 Norte 0 915.1 -0.7 82
2019-05-28 02:00:00 9.7 7 Norte 17 Norte 0 915.7 0.3 84
2019-05-28 01:00:00 10.5 7 Norte 20 Norte 0 915.7 1.2 80
2019-05-28 00:00:00 12.3 6 Norte 19 Norte 0 915.8 2.1 81
2019-05-27 23:00:00 13.3 5 Noroeste 21 Norte 0 915.4 2.3 76
2019-05-27 22:00:00 14.8 6 Norte 22 Norte 0 914.5 1.6 69
2019-05-27 21:00:00 16 9 Norte 37 Norte 0 913.7 1.1 62
2019-05-27 20:00:00 17.3 10 Norte 36 Norte 0 913.1 0.6 59
2019-05-27 19:00:00 18.9 18 Norte 41 Nordeste 0 912.9 0.1 54
2019-05-27 18:00:00 20.7 20 Nordeste 40 Nordeste 0 912.6 -0.5 47
2019-05-27 17:00:00 21.6 17 Norte 32 Nordeste 0 912.5 -0.9 43
2019-05-27 16:00:00 22.8 8 Norte 29 Norte 0 912.8 -1.2 41
2019-05-27 15:00:00 22.6 10 Norte 26 Norte 0 913.1 -1 40
2019-05-27 14:00:00 21.1 11 Norte 27 Noroeste 0 913.4 -0.9 41
2019-05-27 13:00:00 20.1 9 Norte 25 Norte 0 914 -0.8 46
2019-05-27 12:00:00 18.9 10 Norte 23 Nordeste 0 914.1 -0.8 49
2019-05-27 11:00:00 15.9 5 Sudeste 9 Sudeste 0 914.3 -0.6 60
2019-05-27 10:00:00 13.5 2 Nordeste 7 Norte 0 914.8 0.1 72
2019-05-27 09:00:00 10.9 0 Calma 4 Nordeste 0 914.9 0.2 83
2019-05-27 08:00:00 7 2 Noroeste 6 Este 0 914.9 0 88
2019-05-27 07:00:00 4.3 2 Sudoeste 5 Este 0 914.7 -0.9 94
2019-05-27 06:00:00 4.7 2 Sudeste 5 Sudeste 0 914.7 -1.2 94
2019-05-27 05:00:00 5.3 0 Calma 4 Sudeste 0 914.9 -1.4 92
2019-05-27 04:00:00 5.9 0 Calma 4 Norte 0 915.6 -1 91
2019-05-27 03:00:00 6.5 3 Sur 8 Sudeste 0 915.9 -1.1 89
2019-05-27 02:00:00 7.9 4 Sudeste 7 Sudoeste 0 916.3 -0.7 85
2019-05-27 01:00:00 9.3 2 Este 8 Norte 0 916.6 -0.1 85
2019-05-27 00:00:00 10.4 3 Noroeste 12 Norte 0 917 0.4 80